sensor_id;sensor_type;location;lat;lon;timestamp;temperature;humidity
51615;DHT22;37695;52.960;6.188;2022-09-09T00:04:33;14.60;99.90
51615;DHT22;37695;52.960;6.188;2022-09-09T00:10:00;14.60;99.90
51615;DHT22;37695;52.960;6.188;2022-09-09T00:12:43;14.60;99.90
51615;DHT22;37695;52.960;6.188;2022-09-09T00:15:24;14.60;99.90
51615;DHT22;37695;52.960;6.188;2022-09-09T00:18:12;14.60;99.90
51615;DHT22;37695;52.960;6.188;2022-09-09T00:20:51;14.50;99.90
51615;DHT22;37695;52.960;6.188;2022-09-09T00:23:28;14.50;99.90
51615;DHT22;37695;52.960;6.188;2022-09-09T00:26:24;14.50;99.90
51615;DHT22;37695;52.960;6.188;2022-09-09T00:31:34;14.50;99.90
51615;DHT22;37695;52.960;6.188;2022-09-09T00:34:09;14.50;99.90
51615;DHT22;37695;52.960;6.188;2022-09-09T00:36:38;14.50;99.90
51615;DHT22;37695;52.960;6.188;2022-09-09T00:39:04;14.50;99.90
51615;DHT22;37695;52.960;6.188;2022-09-09T00:41:43;14.50;99.90
51615;DHT22;37695;52.960;6.188;2022-09-09T00:44:33;14.50;99.90
51615;DHT22;37695;52.960;6.188;2022-09-09T00:47:40;14.40;99.90
51615;DHT22;37695;52.960;6.188;2022-09-09T00:50:30;14.40;99.90
51615;DHT22;37695;52.960;6.188;2022-09-09T00:53:17;14.40;99.90
51615;DHT22;37695;52.960;6.188;2022-09-09T00:55:49;14.40;99.90
51615;DHT22;37695;52.960;6.188;2022-09-09T00:58:17;14.40;99.90
51615;DHT22;37695;52.960;6.188;2022-09-09T01:00:46;14.40;99.90
51615;DHT22;37695;52.960;6.188;2022-09-09T01:03:37;14.40;99.90
51615;DHT22;37695;52.960;6.188;2022-09-09T01:11:21;14.40;99.90
51615;DHT22;37695;52.960;6.188;2022-09-09T01:13:55;14.40;99.90
51615;DHT22;37695;52.960;6.188;2022-09-09T01:16:24;14.40;99.90
51615;DHT22;37695;52.960;6.188;2022-09-09T01:18:53;14.40;99.90
51615;DHT22;37695;52.960;6.188;2022-09-09T01:26:30;14.40;99.90
51615;DHT22;37695;52.960;6.188;2022-09-09T01:28:57;14.40;99.90
51615;DHT22;37695;52.960;6.188;2022-09-09T01:31:31;14.40;99.90
51615;DHT22;37695;52.960;6.188;2022-09-09T01:33:57;14.50;99.90
51615;DHT22;37695;52.960;6.188;2022-09-09T01:36:28;14.50;99.90
51615;DHT22;37695;52.960;6.188;2022-09-09T01:38:55;14.50;99.90
51615;DHT22;37695;52.960;6.188;2022-09-09T01:41:21;14.50;99.90
51615;DHT22;37695;52.960;6.188;2022-09-09T01:43:47;14.50;99.90
51615;DHT22;37695;52.960;6.188;2022-09-09T01:46:13;14.50;99.90
51615;DHT22;37695;52.960;6.188;2022-09-09T01:48:40;14.60;99.90
51615;DHT22;37695;52.960;6.188;2022-09-09T01:51:08;14.60;99.90
51615;DHT22;37695;52.960;6.188;2022-09-09T01:53:34;14.30;99.90
51615;DHT22;37695;52.960;6.188;2022-09-09T01:56:12;14.60;99.90
51615;DHT22;37695;52.960;6.188;2022-09-09T01:58:44;14.60;99.90
51615;DHT22;37695;52.960;6.188;2022-09-09T02:01:24;14.60;99.90
51615;DHT22;37695;52.960;6.188;2022-09-09T02:03:56;14.60;99.90
51615;DHT22;37695;52.960;6.188;2022-09-09T02:06:33;14.60;99.90
51615;DHT22;37695;52.960;6.188;2022-09-09T02:09:02;14.60;99.90
51615;DHT22;37695;52.960;6.188;2022-09-09T02:11:29;14.60;99.90
51615;DHT22;37695;52.960;6.188;2022-09-09T02:14:16;14.60;99.90
51615;DHT22;37695;52.960;6.188;2022-09-09T02:17:03;14.70;99.90
51615;DHT22;37695;52.960;6.188;2022-09-09T02:19:48;14.70;99.90
51615;DHT22;37695;52.960;6.188;2022-09-09T02:22:17;14.70;99.90
51615;DHT22;37695;52.960;6.188;2022-09-09T02:24:44;14.70;99.90
51615;DHT22;37695;52.960;6.188;2022-09-09T02:27:12;14.70;99.90
51615;DHT22;37695;52.960;6.188;2022-09-09T02:29:40;14.80;99.90
51615;DHT22;37695;52.960;6.188;2022-09-09T02:32:11;14.70;99.90
51615;DHT22;37695;52.960;6.188;2022-09-09T02:34:43;14.70;99.90
51615;DHT22;37695;52.960;6.188;2022-09-09T02:37:11;14.80;99.90
51615;DHT22;37695;52.960;6.188;2022-09-09T02:39:37;14.80;99.90
51615;DHT22;37695;52.960;6.188;2022-09-09T02:42:04;14.80;99.90
51615;DHT22;37695;52.960;6.188;2022-09-09T02:44:30;14.90;99.90
51615;DHT22;37695;52.960;6.188;2022-09-09T02:50:01;14.90;99.90
51615;DHT22;37695;52.960;6.188;2022-09-09T02:53:02;14.80;99.90
51615;DHT22;37695;52.960;6.188;2022-09-09T02:55:41;14.80;99.90
51615;DHT22;37695;52.960;6.188;2022-09-09T02:58:10;14.80;99.90
51615;DHT22;37695;52.960;6.188;2022-09-09T03:00:39;14.80;99.90
51615;DHT22;37695;52.960;6.188;2022-09-09T03:03:06;14.80;99.90
51615;DHT22;37695;52.960;6.188;2022-09-09T03:05:32;14.90;99.90
51615;DHT22;37695;52.960;6.188;2022-09-09T03:07:58;15.00;99.90
51615;DHT22;37695;52.960;6.188;2022-09-09T03:10:24;14.90;99.90
51615;DHT22;37695;52.960;6.188;2022-09-09T03:12:49;14.90;99.90
51615;DHT22;37695;52.960;6.188;2022-09-09T03:15:15;14.90;99.90
51615;DHT22;37695;52.960;6.188;2022-09-09T03:17:41;14.90;99.90
51615;DHT22;37695;52.960;6.188;2022-09-09T03:20:07;14.90;99.90
51615;DHT22;37695;52.960;6.188;2022-09-09T03:22:34;14.90;99.90
51615;DHT22;37695;52.960;6.188;2022-09-09T03:25:00;14.90;99.90
51615;DHT22;37695;52.960;6.188;2022-09-09T03:27:25;14.90;99.90
51615;DHT22;37695;52.960;6.188;2022-09-09T03:29:51;14.90;99.90
51615;DHT22;37695;52.960;6.188;2022-09-09T03:32:17;14.90;99.90
51615;DHT22;37695;52.960;6.188;2022-09-09T03:34:44;14.90;99.90
51615;DHT22;37695;52.960;6.188;2022-09-09T03:37:10;14.90;99.90
51615;DHT22;37695;52.960;6.188;2022-09-09T03:39:35;14.90;99.90
51615;DHT22;37695;52.960;6.188;2022-09-09T03:42:01;14.90;99.90
51615;DHT22;37695;52.960;6.188;2022-09-09T03:44:30;14.90;99.90
51615;DHT22;37695;52.960;6.188;2022-09-09T03:46:55;14.90;99.90
51615;DHT22;37695;52.960;6.188;2022-09-09T03:49:21;14.90;99.90
51615;DHT22;37695;52.960;6.188;2022-09-09T03:51:48;14.90;99.90
51615;DHT22;37695;52.960;6.188;2022-09-09T03:54:13;14.80;99.90
51615;DHT22;37695;52.960;6.188;2022-09-09T03:56:39;14.80;99.90
51615;DHT22;37695;52.960;6.188;2022-09-09T03:59:06;14.80;99.90
51615;DHT22;37695;52.960;6.188;2022-09-09T04:01:34;14.80;99.90
51615;DHT22;37695;52.960;6.188;2022-09-09T04:04:00;14.80;99.90
51615;DHT22;37695;52.960;6.188;2022-09-09T04:06:27;14.80;99.90
51615;DHT22;37695;52.960;6.188;2022-09-09T04:08:53;14.80;99.90
51615;DHT22;37695;52.960;6.188;2022-09-09T04:11:19;14.80;99.90
51615;DHT22;37695;52.960;6.188;2022-09-09T04:13:45;14.80;99.90
51615;DHT22;37695;52.960;6.188;2022-09-09T04:16:11;14.80;99.90
51615;DHT22;37695;52.960;6.188;2022-09-09T04:18:39;14.80;99.90
51615;DHT22;37695;52.960;6.188;2022-09-09T04:21:05;14.80;99.90
51615;DHT22;37695;52.960;6.188;2022-09-09T04:23:32;14.80;99.90
51615;DHT22;37695;52.960;6.188;2022-09-09T04:26:00;14.70;99.90
51615;DHT22;37695;52.960;6.188;2022-09-09T04:28:29;14.70;99.90
51615;DHT22;37695;52.960;6.188;2022-09-09T04:30:55;14.70;99.90
51615;DHT22;37695;52.960;6.188;2022-09-09T04:33:23;14.70;99.90
51615;DHT22;37695;52.960;6.188;2022-09-09T04:35:51;14.70;99.90
51615;DHT22;37695;52.960;6.188;2022-09-09T04:38:19;14.70;99.90
51615;DHT22;37695;52.960;6.188;2022-09-09T04:40:49;14.70;99.90
51615;DHT22;37695;52.960;6.188;2022-09-09T04:43:15;14.70;99.90
51615;DHT22;37695;52.960;6.188;2022-09-09T04:45:41;14.70;99.90
51615;DHT22;37695;52.960;6.188;2022-09-09T04:48:07;14.70;99.90
51615;DHT22;37695;52.960;6.188;2022-09-09T04:50:33;14.70;99.90
51615;DHT22;37695;52.960;6.188;2022-09-09T04:53:08;14.70;99.90
51615;DHT22;37695;52.960;6.188;2022-09-09T04:55:34;14.70;99.90
51615;DHT22;37695;52.960;6.188;2022-09-09T04:58:07;14.70;99.90
51615;DHT22;37695;52.960;6.188;2022-09-09T05:00:34;14.70;99.90
51615;DHT22;37695;52.960;6.188;2022-09-09T05:03:06;14.70;99.90
51615;DHT22;37695;52.960;6.188;2022-09-09T05:05:34;14.70;99.90
51615;DHT22;37695;52.960;6.188;2022-09-09T05:08:05;14.70;99.90
51615;DHT22;37695;52.960;6.188;2022-09-09T05:10:32;14.70;99.90
51615;DHT22;37695;52.960;6.188;2022-09-09T05:12:59;14.70;99.90
51615;DHT22;37695;52.960;6.188;2022-09-09T05:15:24;14.70;99.90
51615;DHT22;37695;52.960;6.188;2022-09-09T05:17:50;14.70;99.90
51615;DHT22;37695;52.960;6.188;2022-09-09T05:20:17;14.60;99.90
51615;DHT22;37695;52.960;6.188;2022-09-09T05:22:43;14.70;99.90
51615;DHT22;37695;52.960;6.188;2022-09-09T05:25:09;14.70;99.90
51615;DHT22;37695;52.960;6.188;2022-09-09T05:27:34;14.60;99.90
51615;DHT22;37695;52.960;6.188;2022-09-09T05:30:00;14.70;99.90
51615;DHT22;37695;52.960;6.188;2022-09-09T05:32:25;14.70;99.90
51615;DHT22;37695;52.960;6.188;2022-09-09T05:34:51;14.60;99.90
51615;DHT22;37695;52.960;6.188;2022-09-09T05:37:18;14.70;99.90
51615;DHT22;37695;52.960;6.188;2022-09-09T05:39:43;14.70;99.90
51615;DHT22;37695;52.960;6.188;2022-09-09T05:42:09;14.70;99.90
51615;DHT22;37695;52.960;6.188;2022-09-09T05:44:35;14.70;99.90
51615;DHT22;37695;52.960;6.188;2022-09-09T05:47:01;14.60;99.90
51615;DHT22;37695;52.960;6.188;2022-09-09T05:49:26;14.60;99.90
51615;DHT22;37695;52.960;6.188;2022-09-09T05:51:52;14.60;99.90
51615;DHT22;37695;52.960;6.188;2022-09-09T05:54:18;14.60;99.90
51615;DHT22;37695;52.960;6.188;2022-09-09T05:56:44;14.70;99.90
51615;DHT22;37695;52.960;6.188;2022-09-09T05:59:10;14.70;99.90
51615;DHT22;37695;52.960;6.188;2022-09-09T06:01:37;14.70;99.90
51615;DHT22;37695;52.960;6.188;2022-09-09T06:04:06;14.70;99.90
51615;DHT22;37695;52.960;6.188;2022-09-09T06:06:34;14.70;99.90
51615;DHT22;37695;52.960;6.188;2022-09-09T06:09:06;14.70;99.90
51615;DHT22;37695;52.960;6.188;2022-09-09T06:11:35;14.80;99.90
51615;DHT22;37695;52.960;6.188;2022-09-09T06:14:02;14.80;99.90
51615;DHT22;37695;52.960;6.188;2022-09-09T06:16:29;14.80;99.90
51615;DHT22;37695;52.960;6.188;2022-09-09T06:18:56;14.90;99.90
51615;DHT22;37695;52.960;6.188;2022-09-09T06:21:31;14.80;99.90
51615;DHT22;37695;52.960;6.188;2022-09-09T06:23:58;14.90;99.90
51615;DHT22;37695;52.960;6.188;2022-09-09T06:26:35;14.90;99.90
51615;DHT22;37695;52.960;6.188;2022-09-09T06:29:03;14.90;99.90
51615;DHT22;37695;52.960;6.188;2022-09-09T06:31:30;15.00;99.90
51615;DHT22;37695;52.960;6.188;2022-09-09T06:33:57;15.00;99.90
51615;DHT22;37695;52.960;6.188;2022-09-09T06:36:33;15.00;99.90
51615;DHT22;37695;52.960;6.188;2022-09-09T06:38:59;15.00;99.90
51615;DHT22;37695;52.960;6.188;2022-09-09T06:41:27;15.00;99.90
51615;DHT22;37695;52.960;6.188;2022-09-09T06:43:53;15.10;99.90
51615;DHT22;37695;52.960;6.188;2022-09-09T06:46:24;15.10;99.90
51615;DHT22;37695;52.960;6.188;2022-09-09T06:48:53;15.20;99.90
51615;DHT22;37695;52.960;6.188;2022-09-09T06:51:21;15.30;99.90
51615;DHT22;37695;52.960;6.188;2022-09-09T06:53:50;15.40;99.90
51615;DHT22;37695;52.960;6.188;2022-09-09T06:56:31;15.40;99.90
51615;DHT22;37695;52.960;6.188;2022-09-09T06:58:59;15.50;99.90
51615;DHT22;37695;52.960;6.188;2022-09-09T07:01:28;15.00;99.90
51615;DHT22;37695;52.960;6.188;2022-09-09T07:03:55;15.50;99.90
51615;DHT22;37695;52.960;6.188;2022-09-09T07:06:26;15.60;99.90
51615;DHT22;37695;52.960;6.188;2022-09-09T07:08:54;15.60;99.90
51615;DHT22;37695;52.960;6.188;2022-09-09T07:11:22;15.60;99.90
51615;DHT22;37695;52.960;6.188;2022-09-09T07:13:48;15.70;99.90
51615;DHT22;37695;52.960;6.188;2022-09-09T07:16:18;15.70;99.90
51615;DHT22;37695;52.960;6.188;2022-09-09T07:18:44;15.60;99.90
51615;DHT22;37695;52.960;6.188;2022-09-09T07:21:11;15.60;99.90
51615;DHT22;37695;52.960;6.188;2022-09-09T07:23:40;15.60;99.90
51615;DHT22;37695;52.960;6.188;2022-09-09T07:26:13;15.50;99.90
51615;DHT22;37695;52.960;6.188;2022-09-09T07:28:39;15.60;99.90
51615;DHT22;37695;52.960;6.188;2022-09-09T07:31:06;15.50;99.90
51615;DHT22;37695;52.960;6.188;2022-09-09T07:33:34;15.50;99.90
51615;DHT22;37695;52.960;6.188;2022-09-09T07:36:05;15.50;99.90
51615;DHT22;37695;52.960;6.188;2022-09-09T07:38:37;15.50;99.90
51615;DHT22;37695;52.960;6.188;2022-09-09T07:41:04;15.50;99.90
51615;DHT22;37695;52.960;6.188;2022-09-09T07:43:30;15.50;99.90
51615;DHT22;37695;52.960;6.188;2022-09-09T07:46:00;15.60;99.90
51615;DHT22;37695;52.960;6.188;2022-09-09T07:48:27;15.60;99.90
51615;DHT22;37695;52.960;6.188;2022-09-09T07:51:01;15.60;99.90
51615;DHT22;37695;52.960;6.188;2022-09-09T07:53:27;15.60;99.90
51615;DHT22;37695;52.960;6.188;2022-09-09T07:55:52;15.60;99.90
51615;DHT22;37695;52.960;6.188;2022-09-09T07:58:19;15.60;99.90
51615;DHT22;37695;52.960;6.188;2022-09-09T08:00:44;15.70;99.90
51615;DHT22;37695;52.960;6.188;2022-09-09T08:03:10;15.80;99.90
51615;DHT22;37695;52.960;6.188;2022-09-09T08:05:35;15.90;99.90
51615;DHT22;37695;52.960;6.188;2022-09-09T08:08:01;16.10;99.90
51615;DHT22;37695;52.960;6.188;2022-09-09T08:10:29;16.20;99.90
51615;DHT22;37695;52.960;6.188;2022-09-09T08:12:54;16.40;99.90
51615;DHT22;37695;52.960;6.188;2022-09-09T08:15:20;16.50;99.90
51615;DHT22;37695;52.960;6.188;2022-09-09T08:17:46;16.60;99.90
51615;DHT22;37695;52.960;6.188;2022-09-09T08:20:11;16.80;99.90
51615;DHT22;37695;52.960;6.188;2022-09-09T08:22:37;17.00;99.90
51615;DHT22;37695;52.960;6.188;2022-09-09T08:25:03;17.10;99.90
51615;DHT22;37695;52.960;6.188;2022-09-09T08:27:31;17.20;99.90
51615;DHT22;37695;52.960;6.188;2022-09-09T08:29:58;17.30;99.90
51615;DHT22;37695;52.960;6.188;2022-09-09T08:32:24;17.40;99.90
51615;DHT22;37695;52.960;6.188;2022-09-09T08:34:49;17.50;99.90
51615;DHT22;37695;52.960;6.188;2022-09-09T08:37:16;17.50;99.90
51615;DHT22;37695;52.960;6.188;2022-09-09T08:39:42;17.50;99.90
51615;DHT22;37695;52.960;6.188;2022-09-09T08:42:25;17.70;99.90
51615;DHT22;37695;52.960;6.188;2022-09-09T08:47:56;17.90;99.90
51615;DHT22;37695;52.960;6.188;2022-09-09T08:50:35;18.00;99.90
51615;DHT22;37695;52.960;6.188;2022-09-09T08:53:16;18.00;99.90
51615;DHT22;37695;52.960;6.188;2022-09-09T08:55:48;18.10;99.90
51615;DHT22;37695;52.960;6.188;2022-09-09T08:58:20;18.20;99.90
51615;DHT22;37695;52.960;6.188;2022-09-09T09:00:50;18.30;99.90
51615;DHT22;37695;52.960;6.188;2022-09-09T09:11:27;18.40;99.90
51615;DHT22;37695;52.960;6.188;2022-09-09T09:19:33;18.40;99.90
51615;DHT22;37695;52.960;6.188;2022-09-09T09:28:00;18.30;99.90
51615;DHT22;37695;52.960;6.188;2022-09-09T09:30:40;18.30;99.90
51615;DHT22;37695;52.960;6.188;2022-09-09T09:33:27;18.30;99.90
51615;DHT22;37695;52.960;6.188;2022-09-09T09:35:54;18.30;99.90
51615;DHT22;37695;52.960;6.188;2022-09-09T09:38:24;18.30;99.90
51615;DHT22;37695;52.960;6.188;2022-09-09T09:40:52;18.40;99.90
51615;DHT22;37695;52.960;6.188;2022-09-09T09:43:31;18.50;99.90
51615;DHT22;37695;52.960;6.188;2022-09-09T09:45:58;18.60;99.90
51615;DHT22;37695;52.960;6.188;2022-09-09T09:48:25;18.60;99.90
51615;DHT22;37695;52.960;6.188;2022-09-09T09:50:54;18.60;99.90
51615;DHT22;37695;52.960;6.188;2022-09-09T09:53:32;18.70;99.90
51615;DHT22;37695;52.960;6.188;2022-09-09T09:56:08;18.80;99.90
51615;DHT22;37695;52.960;6.188;2022-09-09T10:01:30;18.90;99.90
51615;DHT22;37695;52.960;6.188;2022-09-09T10:04:19;19.10;99.90
51615;DHT22;37695;52.960;6.188;2022-09-09T10:06:47;19.30;99.90
51615;DHT22;37695;52.960;6.188;2022-09-09T10:09:29;19.40;99.90
51615;DHT22;37695;52.960;6.188;2022-09-09T10:36:57;19.20;99.90
51615;DHT22;37695;52.960;6.188;2022-09-09T10:42:05;19.00;99.90
51615;DHT22;37695;52.960;6.188;2022-09-09T10:47:30;19.20;99.90
51615;DHT22;37695;52.960;6.188;2022-09-09T10:55:20;19.70;99.90
51615;DHT22;37695;52.960;6.188;2022-09-09T10:57:52;19.60;99.90
51615;DHT22;37695;52.960;6.188;2022-09-09T11:00:24;19.50;99.90
51615;DHT22;37695;52.960;6.188;2022-09-09T11:03:00;19.40;99.90
51615;DHT22;37695;52.960;6.188;2022-09-09T11:05:53;19.30;99.90
51615;DHT22;37695;52.960;6.188;2022-09-09T11:08:25;19.20;99.90
51615;DHT22;37695;52.960;6.188;2022-09-09T11:16:30;18.80;99.90
51615;DHT22;37695;52.960;6.188;2022-09-09T11:19:03;18.80;99.90
51615;DHT22;37695;52.960;6.188;2022-09-09T11:21:37;18.80;99.90
51615;DHT22;37695;52.960;6.188;2022-09-09T11:24:12;18.90;99.90
51615;DHT22;37695;52.960;6.188;2022-09-09T11:26:47;18.90;99.90
51615;DHT22;37695;52.960;6.188;2022-09-09T11:40:15;18.50;99.90
51615;DHT22;37695;52.960;6.188;2022-09-09T11:42:42;18.50;99.90
51615;DHT22;37695;52.960;6.188;2022-09-09T11:45:10;18.60;99.90
51615;DHT22;37695;52.960;6.188;2022-09-09T11:47:36;18.80;99.90
51615;DHT22;37695;52.960;6.188;2022-09-09T11:52:44;19.40;99.90
51615;DHT22;37695;52.960;6.188;2022-09-09T11:55:31;19.70;99.90
51615;DHT22;37695;52.960;6.188;2022-09-09T11:58:06;19.90;99.90
51615;DHT22;37695;52.960;6.188;2022-09-09T12:00:45;20.10;99.90
51615;DHT22;37695;52.960;6.188;2022-09-09T12:05:59;20.10;99.90
51615;DHT22;37695;52.960;6.188;2022-09-09T12:08:29;20.20;99.90
51615;DHT22;37695;52.960;6.188;2022-09-09T12:10:57;20.40;99.90
51615;DHT22;37695;52.960;6.188;2022-09-09T12:13:26;20.50;99.90
51615;DHT22;37695;52.960;6.188;2022-09-09T12:15:53;20.40;99.90
51615;DHT22;37695;52.960;6.188;2022-09-09T12:29:04;20.50;99.90
51615;DHT22;37695;52.960;6.188;2022-09-09T12:31:56;20.60;99.90
51615;DHT22;37695;52.960;6.188;2022-09-09T12:34:44;20.50;99.90
51615;DHT22;37695;52.960;6.188;2022-09-09T12:37:37;20.30;99.90
51615;DHT22;37695;52.960;6.188;2022-09-09T12:40:14;20.40;99.90
51615;DHT22;37695;52.960;6.188;2022-09-09T12:42:43;20.50;99.90
51615;DHT22;37695;52.960;6.188;2022-09-09T12:45:23;20.40;99.90
51615;DHT22;37695;52.960;6.188;2022-09-09T12:48:11;20.30;99.90
51615;DHT22;37695;52.960;6.188;2022-09-09T12:50:43;20.20;99.90
51615;DHT22;37695;52.960;6.188;2022-09-09T12:53:20;19.80;99.90
51615;DHT22;37695;52.960;6.188;2022-09-09T12:56:01;19.70;99.90
51615;DHT22;37695;52.960;6.188;2022-09-09T12:58:30;19.80;99.90
51615;DHT22;37695;52.960;6.188;2022-09-09T13:01:01;20.00;99.90
51615;DHT22;37695;52.960;6.188;2022-09-09T13:03:31;20.00;99.90
51615;DHT22;37695;52.960;6.188;2022-09-09T13:06:18;20.10;99.90
51615;DHT22;37695;52.960;6.188;2022-09-09T13:08:45;20.10;99.90
51615;DHT22;37695;52.960;6.188;2022-09-09T13:11:15;19.90;99.90
51615;DHT22;37695;52.960;6.188;2022-09-09T13:13:50;19.90;99.90
51615;DHT22;37695;52.960;6.188;2022-09-09T13:16:35;19.90;99.90
51615;DHT22;37695;52.960;6.188;2022-09-09T13:19:02;19.90;99.90
51615;DHT22;37695;52.960;6.188;2022-09-09T13:21:33;19.80;99.90
51615;DHT22;37695;52.960;6.188;2022-09-09T13:23:59;19.90;99.90
51615;DHT22;37695;52.960;6.188;2022-09-09T13:26:29;20.00;99.90
51615;DHT22;37695;52.960;6.188;2022-09-09T13:29:07;19.90;99.90
51615;DHT22;37695;52.960;6.188;2022-09-09T13:31:36;19.80;99.90
51615;DHT22;37695;52.960;6.188;2022-09-09T13:34:27;19.70;99.90
51615;DHT22;37695;52.960;6.188;2022-09-09T13:36:59;19.50;99.90
51615;DHT22;37695;52.960;6.188;2022-09-09T13:39:27;19.40;99.90
51615;DHT22;37695;52.960;6.188;2022-09-09T13:41:53;19.30;99.90
51615;DHT22;37695;52.960;6.188;2022-09-09T13:44:28;19.30;99.90
51615;DHT22;37695;52.960;6.188;2022-09-09T13:47:21;19.50;99.90
51615;DHT22;37695;52.960;6.188;2022-09-09T13:49:48;19.60;99.90
51615;DHT22;37695;52.960;6.188;2022-09-09T13:52:16;19.70;99.90
51615;DHT22;37695;52.960;6.188;2022-09-09T13:54:42;19.80;99.90
51615;DHT22;37695;52.960;6.188;2022-09-09T13:57:26;19.90;99.90
51615;DHT22;37695;52.960;6.188;2022-09-09T13:59:54;20.00;99.90
51615;DHT22;37695;52.960;6.188;2022-09-09T14:02:20;20.20;99.90
51615;DHT22;37695;52.960;6.188;2022-09-09T14:04:48;20.30;99.90
51615;DHT22;37695;52.960;6.188;2022-09-09T14:07:17;20.40;99.90
51615;DHT22;37695;52.960;6.188;2022-09-09T14:09:43;20.40;99.90
51615;DHT22;37695;52.960;6.188;2022-09-09T14:12:11;20.30;99.90
51615;DHT22;37695;52.960;6.188;2022-09-09T14:14:37;20.30;99.90
51615;DHT22;37695;52.960;6.188;2022-09-09T14:17:02;20.20;99.90
51615;DHT22;37695;52.960;6.188;2022-09-09T14:19:29;20.10;99.90
51615;DHT22;37695;52.960;6.188;2022-09-09T14:21:55;19.90;99.90
51615;DHT22;37695;52.960;6.188;2022-09-09T14:24:20;19.80;99.90
51615;DHT22;37695;52.960;6.188;2022-09-09T14:26:46;19.60;99.90
51615;DHT22;37695;52.960;6.188;2022-09-09T14:29:12;19.50;99.90
51615;DHT22;37695;52.960;6.188;2022-09-09T14:31:38;19.50;99.90
51615;DHT22;37695;52.960;6.188;2022-09-09T14:34:03;19.50;99.90
51615;DHT22;37695;52.960;6.188;2022-09-09T14:36:29;19.50;99.90
51615;DHT22;37695;52.960;6.188;2022-09-09T14:38:55;19.50;99.90
51615;DHT22;37695;52.960;6.188;2022-09-09T14:41:21;19.50;99.90
51615;DHT22;37695;52.960;6.188;2022-09-09T14:43:48;19.50;99.90
51615;DHT22;37695;52.960;6.188;2022-09-09T14:46:15;19.40;99.90
51615;DHT22;37695;52.960;6.188;2022-09-09T14:48:41;19.30;99.90
51615;DHT22;37695;52.960;6.188;2022-09-09T14:51:09;19.20;99.90
51615;DHT22;37695;52.960;6.188;2022-09-09T14:53:35;19.20;99.90
51615;DHT22;37695;52.960;6.188;2022-09-09T14:56:21;19.10;99.90
51615;DHT22;37695;52.960;6.188;2022-09-09T14:58:47;19.20;99.90
51615;DHT22;37695;52.960;6.188;2022-09-09T15:01:18;19.00;99.90
51615;DHT22;37695;52.960;6.188;2022-09-09T15:03:54;19.00;99.90
51615;DHT22;37695;52.960;6.188;2022-09-09T15:06:21;18.90;99.90
51615;DHT22;37695;52.960;6.188;2022-09-09T15:08:47;18.90;99.90
51615;DHT22;37695;52.960;6.188;2022-09-09T15:11:14;18.80;99.90
51615;DHT22;37695;52.960;6.188;2022-09-09T15:13:41;18.70;99.90
51615;DHT22;37695;52.960;6.188;2022-09-09T15:16:11;18.70;99.90
51615;DHT22;37695;52.960;6.188;2022-09-09T15:18:37;18.70;99.90
51615;DHT22;37695;52.960;6.188;2022-09-09T15:21:09;18.60;99.90
51615;DHT22;37695;52.960;6.188;2022-09-09T15:23:35;18.50;99.90
51615;DHT22;37695;52.960;6.188;2022-09-09T15:26:01;18.50;99.90
51615;DHT22;37695;52.960;6.188;2022-09-09T15:28:28;18.60;99.90
51615;DHT22;37695;52.960;6.188;2022-09-09T15:30:54;18.70;99.90
51615;DHT22;37695;52.960;6.188;2022-09-09T15:33:20;18.80;99.90
51615;DHT22;37695;52.960;6.188;2022-09-09T15:35:46;18.80;99.90
51615;DHT22;37695;52.960;6.188;2022-09-09T15:38:12;18.80;99.90
51615;DHT22;37695;52.960;6.188;2022-09-09T15:40:39;18.90;99.90
51615;DHT22;37695;52.960;6.188;2022-09-09T15:43:05;18.90;99.90
51615;DHT22;37695;52.960;6.188;2022-09-09T15:45:31;18.90;99.90
51615;DHT22;37695;52.960;6.188;2022-09-09T15:47:59;18.90;99.90
51615;DHT22;37695;52.960;6.188;2022-09-09T15:50:26;18.90;99.90
51615;DHT22;37695;52.960;6.188;2022-09-09T15:52:52;18.90;99.90
51615;DHT22;37695;52.960;6.188;2022-09-09T15:55:18;18.80;99.90
51615;DHT22;37695;52.960;6.188;2022-09-09T15:57:45;18.70;99.90
51615;DHT22;37695;52.960;6.188;2022-09-09T16:00:12;18.70;99.90
51615;DHT22;37695;52.960;6.188;2022-09-09T16:02:38;18.70;99.90
51615;DHT22;37695;52.960;6.188;2022-09-09T16:05:04;18.60;99.90
51615;DHT22;37695;52.960;6.188;2022-09-09T16:07:30;18.60;99.90
51615;DHT22;37695;52.960;6.188;2022-09-09T16:09:56;18.50;99.90
51615;DHT22;37695;52.960;6.188;2022-09-09T16:12:21;18.50;99.90
51615;DHT22;37695;52.960;6.188;2022-09-09T16:14:47;18.40;99.90
51615;DHT22;37695;52.960;6.188;2022-09-09T16:17:12;18.20;99.90
51615;DHT22;37695;52.960;6.188;2022-09-09T16:19:39;18.30;99.90
51615;DHT22;37695;52.960;6.188;2022-09-09T16:22:05;18.20;99.90
51615;DHT22;37695;52.960;6.188;2022-09-09T16:24:32;18.20;99.90
51615;DHT22;37695;52.960;6.188;2022-09-09T16:26:57;18.20;99.90
51615;DHT22;37695;52.960;6.188;2022-09-09T16:29:23;18.40;99.90
51615;DHT22;37695;52.960;6.188;2022-09-09T16:31:50;18.50;99.90
51615;DHT22;37695;52.960;6.188;2022-09-09T16:34:16;18.60;99.90
51615;DHT22;37695;52.960;6.188;2022-09-09T16:36:44;18.70;99.90
51615;DHT22;37695;52.960;6.188;2022-09-09T16:39:12;18.80;99.90
51615;DHT22;37695;52.960;6.188;2022-09-09T16:41:39;18.80;99.90
51615;DHT22;37695;52.960;6.188;2022-09-09T16:44:06;18.70;99.90
51615;DHT22;37695;52.960;6.188;2022-09-09T16:46:38;18.60;99.90
51615;DHT22;37695;52.960;6.188;2022-09-09T16:49:05;18.50;99.90
51615;DHT22;37695;52.960;6.188;2022-09-09T16:51:34;18.30;99.90
51615;DHT22;37695;52.960;6.188;2022-09-09T16:54:01;18.30;99.90
51615;DHT22;37695;52.960;6.188;2022-09-09T16:56:30;18.30;99.90
51615;DHT22;37695;52.960;6.188;2022-09-09T16:59:00;18.20;99.90
51615;DHT22;37695;52.960;6.188;2022-09-09T17:01:28;18.10;99.90
51615;DHT22;37695;52.960;6.188;2022-09-09T17:03:58;18.10;99.90
51615;DHT22;37695;52.960;6.188;2022-09-09T17:06:26;18.00;99.90
51615;DHT22;37695;52.960;6.188;2022-09-09T17:08:56;17.90;99.90
51615;DHT22;37695;52.960;6.188;2022-09-09T17:11:22;17.90;99.90
51615;DHT22;37695;52.960;6.188;2022-09-09T17:13:49;17.90;99.90
51615;DHT22;37695;52.960;6.188;2022-09-09T17:16:17;17.80;99.90
51615;DHT22;37695;52.960;6.188;2022-09-09T17:18:43;17.80;99.90
51615;DHT22;37695;52.960;6.188;2022-09-09T17:21:16;17.70;99.90
51615;DHT22;37695;52.960;6.188;2022-09-09T17:23:42;17.80;99.90
51615;DHT22;37695;52.960;6.188;2022-09-09T17:26:10;17.70;99.90
51615;DHT22;37695;52.960;6.188;2022-09-09T17:28:38;17.70;99.90
51615;DHT22;37695;52.960;6.188;2022-09-09T17:31:05;17.70;99.90
51615;DHT22;37695;52.960;6.188;2022-09-09T17:33:37;17.60;99.90
51615;DHT22;37695;52.960;6.188;2022-09-09T17:36:12;17.60;99.90
51615;DHT22;37695;52.960;6.188;2022-09-09T17:38:38;17.60;99.90
51615;DHT22;37695;52.960;6.188;2022-09-09T17:41:06;17.60;99.90
51615;DHT22;37695;52.960;6.188;2022-09-09T17:43:32;17.50;99.90